KSGJ

Northeast Florida Regional Airport

St Augustine, Florida, USA
METAR KSGJ 242104Z 11011KT 10SM BKN023 30/24 A3005 RMK AO2
Observed Flight Rules
Sep-24 @ 21:04 UTC (18 minutes ago) Marginal Visual Flight Rules
Wind Visibility Clouds
110° at 11 knots 10 miles
  • Broken at 2,300' AGL
Temperatures Readings
Current 30°C / 86°F
Dewpoint 24°C / 75°F
Humidity 70%
Altimeter 30.05" Hg
Pressure 1018 hPa
Elevation 3
METAR KSGJ 242104Z 11011KT 10SM BKN023 30/24 A3005 RMK AO2
Observed Flight Rules
Sep-24 @ 21:04 UTC
(18 minutes ago)
MVFR
Wind Visibility
110° at 11 knots 10 miles
Clouds
  • Broken at 2,300' AGL
Temperature Dewpoint
30°C / 86°F 24°C / 75°F
Humidity Altimeter Pressure
70% 30.05" Hg 1018 hPa